sensor_id;sensor_type;location;lat;lon;timestamp;P1;durP1;ratioP1;P2;durP2;ratioP2
80536;SDS011;69867;47.074;15.404;2024-02-26T00:01:54;8.50;;;3.70;;
80536;SDS011;69867;47.074;15.404;2024-02-26T00:04:19;6.00;;;2.90;;
80536;SDS011;69867;47.074;15.404;2024-02-26T00:06:45;5.57;;;3.20;;
80536;SDS011;69867;47.074;15.404;2024-02-26T00:09:10;7.82;;;2.65;;
80536;SDS011;69867;47.074;15.404;2024-02-26T00:11:36;7.80;;;3.03;;
80536;SDS011;69867;47.074;15.404;2024-02-26T00:14:01;7.07;;;3.75;;
80536;SDS011;69867;47.074;15.404;2024-02-26T00:16:26;6.57;;;3.33;;
80536;SDS011;69867;47.074;15.404;2024-02-26T00:18:52;5.32;;;2.92;;
80536;SDS011;69867;47.074;15.404;2024-02-26T00:21:17;6.15;;;2.88;;
80536;SDS011;69867;47.074;15.404;2024-02-26T00:23:43;9.10;;;3.15;;
80536;SDS011;69867;47.074;15.404;2024-02-26T00:26:10;8.20;;;3.25;;
80536;SDS011;69867;47.074;15.404;2024-02-26T00:28:35;6.65;;;3.30;;
80536;SDS011;69867;47.074;15.404;2024-02-26T00:31:00;9.90;;;3.30;;
80536;SDS011;69867;47.074;15.404;2024-02-26T00:33:26;6.18;;;3.35;;
80536;SDS011;69867;47.074;15.404;2024-02-26T00:35:51;7.40;;;3.50;;
80536;SDS011;69867;47.074;15.404;2024-02-26T00:38:16;9.02;;;3.10;;
80536;SDS011;69867;47.074;15.404;2024-02-26T00:40:42;5.68;;;3.38;;
80536;SDS011;69867;47.074;15.404;2024-02-26T00:43:07;5.80;;;2.95;;
80536;SDS011;69867;47.074;15.404;2024-02-26T00:45:32;6.28;;;2.88;;
80536;SDS011;69867;47.074;15.404;2024-02-26T00:47:58;7.57;;;3.35;;
80536;SDS011;69867;47.074;15.404;2024-02-26T00:50:24;5.05;;;2.80;;
80536;SDS011;69867;47.074;15.404;2024-02-26T00:52:49;5.55;;;3.20;;
80536;SDS011;69867;47.074;15.404;2024-02-26T00:55:15;7.05;;;2.92;;
80536;SDS011;69867;47.074;15.404;2024-02-26T00:57:40;6.38;;;2.80;;
80536;SDS011;69867;47.074;15.404;2024-02-26T01:00:05;7.72;;;2.92;;
80536;SDS011;69867;47.074;15.404;2024-02-26T01:02:31;5.40;;;2.88;;
80536;SDS011;69867;47.074;15.404;2024-02-26T01:04:57;5.45;;;3.05;;
80536;SDS011;69867;47.074;15.404;2024-02-26T01:07:22;7.43;;;3.53;;
80536;SDS011;69867;47.074;15.404;2024-02-26T01:09:47;6.80;;;2.42;;
80536;SDS011;69867;47.074;15.404;2024-02-26T01:12:13;5.53;;;2.67;;
80536;SDS011;69867;47.074;15.404;2024-02-26T01:14:38;8.07;;;2.63;;
80536;SDS011;69867;47.074;15.404;2024-02-26T01:17:03;4.45;;;2.72;;
80536;SDS011;69867;47.074;15.404;2024-02-26T01:19:28;6.40;;;2.85;;
80536;SDS011;69867;47.074;15.404;2024-02-26T01:21:54;8.32;;;2.92;;
80536;SDS011;69867;47.074;15.404;2024-02-26T01:24:19;9.43;;;3.17;;
80536;SDS011;69867;47.074;15.404;2024-02-26T01:26:44;6.95;;;2.83;;
80536;SDS011;69867;47.074;15.404;2024-02-26T01:29:10;8.10;;;3.13;;
80536;SDS011;69867;47.074;15.404;2024-02-26T01:31:35;8.60;;;2.90;;
80536;SDS011;69867;47.074;15.404;2024-02-26T01:34:01;6.65;;;3.20;;
80536;SDS011;69867;47.074;15.404;2024-02-26T01:36:26;7.38;;;3.50;;
80536;SDS011;69867;47.074;15.404;2024-02-26T01:38:51;6.63;;;2.80;;
80536;SDS011;69867;47.074;15.404;2024-02-26T01:41:17;6.22;;;3.30;;
80536;SDS011;69867;47.074;15.404;2024-02-26T01:43:42;7.40;;;3.08;;
80536;SDS011;69867;47.074;15.404;2024-02-26T01:46:11;6.60;;;2.70;;
80536;SDS011;69867;47.074;15.404;2024-02-26T01:48:40;5.82;;;3.20;;
80536;SDS011;69867;47.074;15.404;2024-02-26T01:51:07;5.13;;;2.67;;
80536;SDS011;69867;47.074;15.404;2024-02-26T01:53:32;6.10;;;2.67;;
80536;SDS011;69867;47.074;15.404;2024-02-26T01:55:58;7.30;;;3.20;;
80536;SDS011;69867;47.074;15.404;2024-02-26T01:58:24;4.65;;;2.30;;
80536;SDS011;69867;47.074;15.404;2024-02-26T02:00:49;5.57;;;2.80;;
80536;SDS011;69867;47.074;15.404;2024-02-26T02:03:15;6.40;;;2.40;;
80536;SDS011;69867;47.074;15.404;2024-02-26T02:05:40;5.28;;;2.30;;
80536;SDS011;69867;47.074;15.404;2024-02-26T02:08:06;5.50;;;2.40;;
80536;SDS011;69867;47.074;15.404;2024-02-26T02:10:32;6.05;;;2.90;;
80536;SDS011;69867;47.074;15.404;2024-02-26T02:12:57;6.10;;;2.60;;
80536;SDS011;69867;47.074;15.404;2024-02-26T02:15:22;4.72;;;2.40;;
80536;SDS011;69867;47.074;15.404;2024-02-26T02:17:48;5.28;;;2.15;;
80536;SDS011;69867;47.074;15.404;2024-02-26T02:20:17;7.07;;;2.80;;
80536;SDS011;69867;47.074;15.404;2024-02-26T02:22:43;7.28;;;2.70;;
80536;SDS011;69867;47.074;15.404;2024-02-26T02:25:09;7.25;;;2.50;;
80536;SDS011;69867;47.074;15.404;2024-02-26T02:27:34;4.03;;;2.13;;
80536;SDS011;69867;47.074;15.404;2024-02-26T02:30:00;6.15;;;2.60;;
80536;SDS011;69867;47.074;15.404;2024-02-26T02:32:27;5.72;;;2.25;;
80536;SDS011;69867;47.074;15.404;2024-02-26T02:34:53;5.97;;;2.20;;
80536;SDS011;69867;47.074;15.404;2024-02-26T02:37:19;5.07;;;2.22;;
80536;SDS011;69867;47.074;15.404;2024-02-26T02:39:44;6.85;;;2.13;;
80536;SDS011;69867;47.074;15.404;2024-02-26T02:42:10;5.30;;;2.20;;
80536;SDS011;69867;47.074;15.404;2024-02-26T02:44:35;5.85;;;2.38;;
80536;SDS011;69867;47.074;15.404;2024-02-26T02:47:00;5.85;;;2.58;;
80536;SDS011;69867;47.074;15.404;2024-02-26T02:49:26;6.18;;;1.90;;
80536;SDS011;69867;47.074;15.404;2024-02-26T02:51:51;7.13;;;2.20;;
80536;SDS011;69867;47.074;15.404;2024-02-26T02:54:16;6.00;;;2.75;;
80536;SDS011;69867;47.074;15.404;2024-02-26T02:56:42;8.27;;;2.70;;
80536;SDS011;69867;47.074;15.404;2024-02-26T02:59:07;5.72;;;2.53;;
80536;SDS011;69867;47.074;15.404;2024-02-26T03:01:32;6.55;;;2.63;;
80536;SDS011;69867;47.074;15.404;2024-02-26T03:03:58;4.63;;;2.22;;
80536;SDS011;69867;47.074;15.404;2024-02-26T03:06:23;8.02;;;2.72;;
80536;SDS011;69867;47.074;15.404;2024-02-26T03:08:48;5.70;;;2.95;;
80536;SDS011;69867;47.074;15.404;2024-02-26T03:11:14;7.85;;;2.78;;
80536;SDS011;69867;47.074;15.404;2024-02-26T03:13:39;8.05;;;2.70;;
80536;SDS011;69867;47.074;15.404;2024-02-26T03:16:05;6.10;;;3.00;;
80536;SDS011;69867;47.074;15.404;2024-02-26T03:18:30;5.13;;;2.10;;
80536;SDS011;69867;47.074;15.404;2024-02-26T03:20:56;7.43;;;2.33;;
80536;SDS011;69867;47.074;15.404;2024-02-26T03:23:21;5.13;;;2.25;;
80536;SDS011;69867;47.074;15.404;2024-02-26T03:25:46;5.65;;;2.70;;
80536;SDS011;69867;47.074;15.404;2024-02-26T03:28:12;5.30;;;2.70;;
80536;SDS011;69867;47.074;15.404;2024-02-26T03:30:37;6.93;;;2.25;;
80536;SDS011;69867;47.074;15.404;2024-02-26T03:33:02;6.88;;;2.13;;
80536;SDS011;69867;47.074;15.404;2024-02-26T03:35:27;5.75;;;2.40;;
80536;SDS011;69867;47.074;15.404;2024-02-26T03:37:53;4.53;;;1.77;;
80536;SDS011;69867;47.074;15.404;2024-02-26T03:40:18;7.90;;;2.38;;
80536;SDS011;69867;47.074;15.404;2024-02-26T03:42:43;7.47;;;2.28;;
80536;SDS011;69867;47.074;15.404;2024-02-26T03:45:09;4.65;;;2.38;;
80536;SDS011;69867;47.074;15.404;2024-02-26T03:47:35;7.47;;;2.38;;
80536;SDS011;69867;47.074;15.404;2024-02-26T03:50:00;6.30;;;2.40;;
80536;SDS011;69867;47.074;15.404;2024-02-26T03:52:25;6.20;;;2.33;;
80536;SDS011;69867;47.074;15.404;2024-02-26T03:54:51;5.38;;;2.30;;
80536;SDS011;69867;47.074;15.404;2024-02-26T03:57:16;4.53;;;2.17;;
80536;SDS011;69867;47.074;15.404;2024-02-26T03:59:41;4.93;;;2.08;;
80536;SDS011;69867;47.074;15.404;2024-02-26T04:02:06;8.73;;;2.03;;
80536;SDS011;69867;47.074;15.404;2024-02-26T04:04:34;4.65;;;2.13;;
80536;SDS011;69867;47.074;15.404;2024-02-26T04:06:59;7.07;;;2.72;;
80536;SDS011;69867;47.074;15.404;2024-02-26T04:09:25;5.78;;;2.50;;
80536;SDS011;69867;47.074;15.404;2024-02-26T04:11:50;7.97;;;2.47;;
80536;SDS011;69867;47.074;15.404;2024-02-26T04:14:15;5.50;;;2.40;;
80536;SDS011;69867;47.074;15.404;2024-02-26T04:16:41;4.78;;;2.25;;
80536;SDS011;69867;47.074;15.404;2024-02-26T04:19:06;7.07;;;2.47;;
80536;SDS011;69867;47.074;15.404;2024-02-26T04:21:31;6.43;;;2.65;;
80536;SDS011;69867;47.074;15.404;2024-02-26T04:23:56;6.13;;;2.13;;
80536;SDS011;69867;47.074;15.404;2024-02-26T04:26:22;6.85;;;2.28;;
80536;SDS011;69867;47.074;15.404;2024-02-26T04:28:47;6.38;;;2.55;;
80536;SDS011;69867;47.074;15.404;2024-02-26T04:31:12;5.55;;;2.35;;
80536;SDS011;69867;47.074;15.404;2024-02-26T04:33:38;4.38;;;2.53;;
80536;SDS011;69867;47.074;15.404;2024-02-26T04:36:03;8.15;;;2.45;;
80536;SDS011;69867;47.074;15.404;2024-02-26T04:38:29;8.23;;;3.15;;
80536;SDS011;69867;47.074;15.404;2024-02-26T04:40:54;7.55;;;2.80;;
80536;SDS011;69867;47.074;15.404;2024-02-26T04:43:20;7.25;;;2.95;;
80536;SDS011;69867;47.074;15.404;2024-02-26T04:45:45;9.05;;;2.80;;
80536;SDS011;69867;47.074;15.404;2024-02-26T04:48:10;6.35;;;3.08;;
80536;SDS011;69867;47.074;15.404;2024-02-26T04:50:36;6.22;;;2.67;;
80536;SDS011;69867;47.074;15.404;2024-02-26T04:53:01;9.02;;;2.85;;
80536;SDS011;69867;47.074;15.404;2024-02-26T04:55:26;8.63;;;3.13;;
80536;SDS011;69867;47.074;15.404;2024-02-26T04:57:52;10.13;;;4.13;;
80536;SDS011;69867;47.074;15.404;2024-02-26T05:00:17;12.23;;;3.63;;
80536;SDS011;69867;47.074;15.404;2024-02-26T05:02:42;8.90;;;3.42;;
80536;SDS011;69867;47.074;15.404;2024-02-26T05:05:08;8.60;;;4.07;;
80536;SDS011;69867;47.074;15.404;2024-02-26T05:07:33;10.13;;;3.90;;
80536;SDS011;69867;47.074;15.404;2024-02-26T05:09:58;11.70;;;3.90;;
80536;SDS011;69867;47.074;15.404;2024-02-26T05:12:24;9.75;;;3.72;;
80536;SDS011;69867;47.074;15.404;2024-02-26T05:14:50;7.47;;;3.83;;
80536;SDS011;69867;47.074;15.404;2024-02-26T05:17:15;7.30;;;2.85;;
80536;SDS011;69867;47.074;15.404;2024-02-26T05:19:41;8.68;;;2.92;;
80536;SDS011;69867;47.074;15.404;2024-02-26T05:22:06;7.65;;;3.13;;
80536;SDS011;69867;47.074;15.404;2024-02-26T05:24:31;9.68;;;3.35;;
80536;SDS011;69867;47.074;15.404;2024-02-26T05:26:57;7.53;;;3.45;;
80536;SDS011;69867;47.074;15.404;2024-02-26T05:29:22;7.13;;;3.17;;
80536;SDS011;69867;47.074;15.404;2024-02-26T05:31:47;9.30;;;3.58;;
80536;SDS011;69867;47.074;15.404;2024-02-26T05:34:12;8.23;;;3.78;;
80536;SDS011;69867;47.074;15.404;2024-02-26T05:36:38;9.73;;;3.50;;
80536;SDS011;69867;47.074;15.404;2024-02-26T05:39:03;10.23;;;4.05;;
80536;SDS011;69867;47.074;15.404;2024-02-26T05:41:28;9.65;;;3.90;;
80536;SDS011;69867;47.074;15.404;2024-02-26T05:43:54;7.43;;;3.47;;
80536;SDS011;69867;47.074;15.404;2024-02-26T05:46:20;9.93;;;4.32;;
80536;SDS011;69867;47.074;15.404;2024-02-26T05:48:46;9.18;;;3.72;;
80536;SDS011;69867;47.074;15.404;2024-02-26T05:51:12;10.32;;;3.83;;
80536;SDS011;69867;47.074;15.404;2024-02-26T05:53:38;7.45;;;3.72;;
80536;SDS011;69867;47.074;15.404;2024-02-26T05:56:03;9.65;;;3.83;;
80536;SDS011;69867;47.074;15.404;2024-02-26T05:58:29;10.63;;;4.13;;
80536;SDS011;69867;47.074;15.404;2024-02-26T06:00:54;8.93;;;3.97;;
80536;SDS011;69867;47.074;15.404;2024-02-26T06:03:19;9.88;;;3.63;;
80536;SDS011;69867;47.074;15.404;2024-02-26T06:05:45;10.20;;;3.92;;
80536;SDS011;69867;47.074;15.404;2024-02-26T06:08:11;8.77;;;3.67;;
80536;SDS011;69867;47.074;15.404;2024-02-26T06:10:36;10.00;;;4.30;;
80536;SDS011;69867;47.074;15.404;2024-02-26T06:13:01;13.23;;;4.45;;
80536;SDS011;69867;47.074;15.404;2024-02-26T06:15:27;8.65;;;3.83;;
80536;SDS011;69867;47.074;15.404;2024-02-26T06:17:52;9.38;;;4.18;;
80536;SDS011;69867;47.074;15.404;2024-02-26T06:20:17;9.40;;;3.72;;
80536;SDS011;69867;47.074;15.404;2024-02-26T06:22:43;8.65;;;3.20;;
80536;SDS011;69867;47.074;15.404;2024-02-26T06:28:11;10.00;;;3.90;;
80536;SDS011;69867;47.074;15.404;2024-02-26T06:30:36;9.48;;;3.75;;
80536;SDS011;69867;47.074;15.404;2024-02-26T06:33:01;8.38;;;4.80;;
80536;SDS011;69867;47.074;15.404;2024-02-26T06:35:27;8.98;;;4.20;;
80536;SDS011;69867;47.074;15.404;2024-02-26T06:37:52;13.68;;;3.97;;
80536;SDS011;69867;47.074;15.404;2024-02-26T06:40:18;10.32;;;4.22;;
80536;SDS011;69867;47.074;15.404;2024-02-26T06:42:43;11.80;;;4.72;;
80536;SDS011;69867;47.074;15.404;2024-02-26T06:45:09;9.65;;;4.38;;
80536;SDS011;69867;47.074;15.404;2024-02-26T06:47:34;10.18;;;4.82;;
80536;SDS011;69867;47.074;15.404;2024-02-26T06:50:00;10.25;;;5.25;;
80536;SDS011;69867;47.074;15.404;2024-02-26T06:52:25;10.30;;;4.70;;
80536;SDS011;69867;47.074;15.404;2024-02-26T06:54:50;10.15;;;4.93;;
80536;SDS011;69867;47.074;15.404;2024-02-26T06:57:16;8.20;;;4.20;;
80536;SDS011;69867;47.074;15.404;2024-02-26T06:59:41;11.82;;;4.63;;
80536;SDS011;69867;47.074;15.404;2024-02-26T07:02:06;11.07;;;4.85;;
80536;SDS011;69867;47.074;15.404;2024-02-26T07:04:32;11.32;;;5.43;;
80536;SDS011;69867;47.074;15.404;2024-02-26T07:06:57;15.10;;;5.03;;
80536;SDS011;69867;47.074;15.404;2024-02-26T07:09:22;10.50;;;4.47;;
80536;SDS011;69867;47.074;15.404;2024-02-26T07:11:48;9.25;;;4.03;;
80536;SDS011;69867;47.074;15.404;2024-02-26T07:14:13;9.05;;;4.22;;
80536;SDS011;69867;47.074;15.404;2024-02-26T07:16:39;12.07;;;4.60;;
80536;SDS011;69867;47.074;15.404;2024-02-26T07:19:04;7.78;;;3.78;;
80536;SDS011;69867;47.074;15.404;2024-02-26T07:21:29;9.27;;;3.95;;
80536;SDS011;69867;47.074;15.404;2024-02-26T07:23:55;9.85;;;4.28;;
80536;SDS011;69867;47.074;15.404;2024-02-26T07:26:20;8.75;;;4.38;;
80536;SDS011;69867;47.074;15.404;2024-02-26T07:28:45;10.13;;;4.60;;
80536;SDS011;69867;47.074;15.404;2024-02-26T07:31:11;11.45;;;4.53;;
80536;SDS011;69867;47.074;15.404;2024-02-26T07:33:36;10.68;;;4.70;;
80536;SDS011;69867;47.074;15.404;2024-02-26T07:36:01;11.65;;;4.75;;
80536;SDS011;69867;47.074;15.404;2024-02-26T07:38:27;12.07;;;4.28;;
80536;SDS011;69867;47.074;15.404;2024-02-26T07:40:52;8.85;;;4.00;;
80536;SDS011;69867;47.074;15.404;2024-02-26T07:43:17;13.88;;;5.35;;
80536;SDS011;69867;47.074;15.404;2024-02-26T07:45:43;9.65;;;4.40;;
80536;SDS011;69867;47.074;15.404;2024-02-26T07:48:08;11.35;;;5.22;;
80536;SDS011;69867;47.074;15.404;2024-02-26T07:50:33;11.65;;;3.92;;
80536;SDS011;69867;47.074;15.404;2024-02-26T07:52:59;19.60;;;7.13;;
80536;SDS011;69867;47.074;15.404;2024-02-26T07:55:24;12.55;;;4.32;;
80536;SDS011;69867;47.074;15.404;2024-02-26T07:57:49;14.30;;;5.15;;
80536;SDS011;69867;47.074;15.404;2024-02-26T08:00:15;9.02;;;4.93;;
80536;SDS011;69867;47.074;15.404;2024-02-26T08:02:40;10.07;;;4.65;;
80536;SDS011;69867;47.074;15.404;2024-02-26T08:05:06;11.00;;;4.60;;
80536;SDS011;69867;47.074;15.404;2024-02-26T08:07:31;11.25;;;4.55;;
80536;SDS011;69867;47.074;15.404;2024-02-26T08:09:56;10.30;;;4.50;;
80536;SDS011;69867;47.074;15.404;2024-02-26T08:12:22;12.93;;;4.93;;
80536;SDS011;69867;47.074;15.404;2024-02-26T08:14:47;11.98;;;4.88;;
80536;SDS011;69867;47.074;15.404;2024-02-26T08:17:12;15.98;;;5.97;;
80536;SDS011;69867;47.074;15.404;2024-02-26T08:19:38;8.95;;;4.75;;
80536;SDS011;69867;47.074;15.404;2024-02-26T08:22:03;9.38;;;4.15;;
80536;SDS011;69867;47.074;15.404;2024-02-26T08:24:28;11.02;;;3.85;;
80536;SDS011;69867;47.074;15.404;2024-02-26T08:26:54;8.10;;;3.67;;
80536;SDS011;69867;47.074;15.404;2024-02-26T08:29:19;5.18;;;3.15;;
80536;SDS011;69867;47.074;15.404;2024-02-26T08:31:45;8.15;;;3.35;;
80536;SDS011;69867;47.074;15.404;2024-02-26T08:34:10;7.82;;;3.42;;
80536;SDS011;69867;47.074;15.404;2024-02-26T08:36:35;6.18;;;3.13;;
80536;SDS011;69867;47.074;15.404;2024-02-26T08:39:01;11.23;;;3.30;;
80536;SDS011;69867;47.074;15.404;2024-02-26T08:41:26;7.97;;;2.75;;
80536;SDS011;69867;47.074;15.404;2024-02-26T08:43:51;5.32;;;2.60;;
80536;SDS011;69867;47.074;15.404;2024-02-26T08:46:17;5.80;;;1.70;;
80536;SDS011;69867;47.074;15.404;2024-02-26T08:48:42;5.47;;;2.08;;
80536;SDS011;69867;47.074;15.404;2024-02-26T08:51:08;5.10;;;1.70;;
80536;SDS011;69867;47.074;15.404;2024-02-26T08:53:34;4.53;;;1.85;;
80536;SDS011;69867;47.074;15.404;2024-02-26T08:56:00;8.75;;;2.28;;
80536;SDS011;69867;47.074;15.404;2024-02-26T08:58:26;5.00;;;2.08;;
80536;SDS011;69867;47.074;15.404;2024-02-26T09:00:52;4.97;;;2.28;;
80536;SDS011;69867;47.074;15.404;2024-02-26T09:03:17;4.03;;;2.10;;
80536;SDS011;69867;47.074;15.404;2024-02-26T09:05:43;4.72;;;1.88;;
80536;SDS011;69867;47.074;15.404;2024-02-26T09:08:08;5.20;;;2.00;;
80536;SDS011;69867;47.074;15.404;2024-02-26T09:10:33;4.13;;;1.95;;
80536;SDS011;69867;47.074;15.404;2024-02-26T09:12:59;3.92;;;1.75;;
80536;SDS011;69867;47.074;15.404;2024-02-26T09:15:24;4.97;;;1.73;;
80536;SDS011;69867;47.074;15.404;2024-02-26T09:17:50;3.28;;;1.45;;
80536;SDS011;69867;47.074;15.404;2024-02-26T09:20:15;5.38;;;2.10;;
80536;SDS011;69867;47.074;15.404;2024-02-26T09:22:41;7.50;;;2.38;;
80536;SDS011;69867;47.074;15.404;2024-02-26T09:25:06;8.90;;;2.47;;
80536;SDS011;69867;47.074;15.404;2024-02-26T09:27:32;4.68;;;1.90;;
80536;SDS011;69867;47.074;15.404;2024-02-26T09:29:57;6.13;;;2.50;;
80536;SDS011;69867;47.074;15.404;2024-02-26T09:32:23;4.95;;;2.03;;
80536;SDS011;69867;47.074;15.404;2024-02-26T09:34:48;6.85;;;1.65;;
80536;SDS011;69867;47.074;15.404;2024-02-26T09:37:13;7.97;;;2.10;;
80536;SDS011;69867;47.074;15.404;2024-02-26T09:39:39;5.72;;;1.67;;
80536;SDS011;69867;47.074;15.404;2024-02-26T09:42:04;6.35;;;1.55;;
80536;SDS011;69867;47.074;15.404;2024-02-26T09:44:30;3.65;;;1.63;;
80536;SDS011;69867;47.074;15.404;2024-02-26T09:46:57;3.92;;;1.88;;
80536;SDS011;69867;47.074;15.404;2024-02-26T09:49:23;3.90;;;1.70;;
80536;SDS011;69867;47.074;15.404;2024-02-26T09:51:49;4.10;;;2.05;;
80536;SDS011;69867;47.074;15.404;2024-02-26T09:54:15;7.60;;;2.60;;
80536;SDS011;69867;47.074;15.404;2024-02-26T09:56:41;3.80;;;2.25;;
80536;SDS011;69867;47.074;15.404;2024-02-26T09:59:10;6.85;;;2.30;;
80536;SDS011;69867;47.074;15.404;2024-02-26T10:01:38;6.30;;;2.40;;
80536;SDS011;69867;47.074;15.404;2024-02-26T10:04:06;7.10;;;2.65;;
80536;SDS011;69867;47.074;15.404;2024-02-26T10:06:33;4.85;;;2.33;;
80536;SDS011;69867;47.074;15.404;2024-02-26T10:09:00;5.22;;;2.35;;
80536;SDS011;69867;47.074;15.404;2024-02-26T10:11:26;6.03;;;2.20;;
80536;SDS011;69867;47.074;15.404;2024-02-26T10:13:51;8.27;;;2.47;;
80536;SDS011;69867;47.074;15.404;2024-02-26T10:16:17;5.50;;;2.35;;
80536;SDS011;69867;47.074;15.404;2024-02-26T10:18:46;5.55;;;2.58;;
80536;SDS011;69867;47.074;15.404;2024-02-26T10:21:17;5.47;;;2.05;;
80536;SDS011;69867;47.074;15.404;2024-02-26T10:23:43;7.20;;;2.38;;
80536;SDS011;69867;47.074;15.404;2024-02-26T10:26:10;4.53;;;2.08;;
80536;SDS011;69867;47.074;15.404;2024-02-26T10:28:36;4.28;;;2.08;;
80536;SDS011;69867;47.074;15.404;2024-02-26T10:31:02;3.92;;;1.80;;
80536;SDS011;69867;47.074;15.404;2024-02-26T10:33:28;4.50;;;2.00;;
80536;SDS011;69867;47.074;15.404;2024-02-26T10:35:53;5.82;;;2.13;;
80536;SDS011;69867;47.074;15.404;2024-02-26T10:38:19;6.80;;;2.22;;
80536;SDS011;69867;47.074;15.404;2024-02-26T10:40:44;4.63;;;1.95;;
80536;SDS011;69867;47.074;15.404;2024-02-26T10:43:09;7.90;;;2.03;;
80536;SDS011;69867;47.074;15.404;2024-02-26T10:45:35;3.15;;;1.48;;
80536;SDS011;69867;47.074;15.404;2024-02-26T10:48:00;4.50;;;1.70;;
80536;SDS011;69867;47.074;15.404;2024-02-26T10:50:25;10.32;;;3.60;;
80536;SDS011;69867;47.074;15.404;2024-02-26T10:52:51;11.43;;;2.38;;
80536;SDS011;69867;47.074;15.404;2024-02-26T10:55:20;6.78;;;2.20;;
80536;SDS011;69867;47.074;15.404;2024-02-26T10:57:47;4.35;;;1.50;;
80536;SDS011;69867;47.074;15.404;2024-02-26T11:00:13;7.90;;;1.65;;
80536;SDS011;69867;47.074;15.404;2024-02-26T11:02:40;6.50;;;1.65;;
80536;SDS011;69867;47.074;15.404;2024-02-26T11:05:06;6.00;;;1.60;;
80536;SDS011;69867;47.074;15.404;2024-02-26T11:07:32;4.65;;;2.08;;
80536;SDS011;69867;47.074;15.404;2024-02-26T11:09:59;4.57;;;1.75;;
80536;SDS011;69867;47.074;15.404;2024-02-26T11:12:25;4.03;;;1.02;;
80536;SDS011;69867;47.074;15.404;2024-02-26T11:14:53;2.67;;;1.30;;
80536;SDS011;69867;47.074;15.404;2024-02-26T11:17:18;3.47;;;1.20;;
80536;SDS011;69867;47.074;15.404;2024-02-26T11:19:45;6.63;;;1.55;;
80536;SDS011;69867;47.074;15.404;2024-02-26T11:22:11;2.88;;;0.98;;
80536;SDS011;69867;47.074;15.404;2024-02-26T11:24:36;4.25;;;1.30;;
80536;SDS011;69867;47.074;15.404;2024-02-26T11:27:02;5.22;;;1.13;;
80536;SDS011;69867;47.074;15.404;2024-02-26T11:29:41;5.80;;;1.85;;
80536;SDS011;69867;47.074;15.404;2024-02-26T11:32:12;3.70;;;1.23;;
80536;SDS011;69867;47.074;15.404;2024-02-26T11:34:37;2.50;;;0.80;;
80536;SDS011;69867;47.074;15.404;2024-02-26T11:37:16;3.75;;;1.17;;
80536;SDS011;69867;47.074;15.404;2024-02-26T11:39:42;3.05;;;0.85;;
80536;SDS011;69867;47.074;15.404;2024-02-26T11:42:08;2.80;;;1.05;;
80536;SDS011;69867;47.074;15.404;2024-02-26T11:44:34;3.15;;;1.13;;
80536;SDS011;69867;47.074;15.404;2024-02-26T11:47:09;3.10;;;1.10;;
80536;SDS011;69867;47.074;15.404;2024-02-26T11:49:52;3.35;;;1.45;;
80536;SDS011;69867;47.074;15.404;2024-02-26T11:52:18;2.42;;;0.88;;
80536;SDS011;69867;47.074;15.404;2024-02-26T11:54:45;3.92;;;1.20;;
80536;SDS011;69867;47.074;15.404;2024-02-26T11:59:48;3.70;;;1.05;;
80536;SDS011;69867;47.074;15.404;2024-02-26T12:05:18;4.05;;;1.20;;
80536;SDS011;69867;47.074;15.404;2024-02-26T12:07:46;4.22;;;1.33;;
80536;SDS011;69867;47.074;15.404;2024-02-26T12:10:26;3.30;;;0.98;;
80536;SDS011;69867;47.074;15.404;2024-02-26T12:12:59;3.58;;;1.20;;
80536;SDS011;69867;47.074;15.404;2024-02-26T12:16:11;4.20;;;1.13;;
80536;SDS011;69867;47.074;15.404;2024-02-26T12:18:21;3.75;;;1.10;;
80536;SDS011;69867;47.074;15.404;2024-02-26T12:20:57;3.85;;;1.10;;
80536;SDS011;69867;47.074;15.404;2024-02-26T12:23:23;3.83;;;1.42;;
80536;SDS011;69867;47.074;15.404;2024-02-26T12:25:48;4.35;;;1.30;;
80536;SDS011;69867;47.074;15.404;2024-02-26T12:28:14;4.65;;;1.08;;
80536;SDS011;69867;47.074;15.404;2024-02-26T12:30:40;3.80;;;1.50;;
80536;SDS011;69867;47.074;15.404;2024-02-26T12:33:05;2.97;;;1.00;;
80536;SDS011;69867;47.074;15.404;2024-02-26T12:35:31;2.70;;;1.25;;
80536;SDS011;69867;47.074;15.404;2024-02-26T12:37:57;3.17;;;1.25;;
80536;SDS011;69867;47.074;15.404;2024-02-26T12:40:23;4.93;;;1.25;;
80536;SDS011;69867;47.074;15.404;2024-02-26T12:42:48;2.22;;;1.05;;
80536;SDS011;69867;47.074;15.404;2024-02-26T12:45:18;6.28;;;1.45;;
80536;SDS011;69867;47.074;15.404;2024-02-26T12:47:44;3.13;;;1.10;;
80536;SDS011;69867;47.074;15.404;2024-02-26T12:50:10;3.30;;;1.13;;
80536;SDS011;69867;47.074;15.404;2024-02-26T12:52:36;2.58;;;0.95;;
80536;SDS011;69867;47.074;15.404;2024-02-26T12:55:04;2.70;;;0.82;;
80536;SDS011;69867;47.074;15.404;2024-02-26T12:57:31;2.80;;;0.80;;
80536;SDS011;69867;47.074;15.404;2024-02-26T12:59:58;4.93;;;1.08;;
80536;SDS011;69867;47.074;15.404;2024-02-26T13:02:24;4.45;;;1.33;;
80536;SDS011;69867;47.074;15.404;2024-02-26T13:04:50;3.00;;;1.20;;
80536;SDS011;69867;47.074;15.404;2024-02-26T13:07:16;3.90;;;1.02;;
80536;SDS011;69867;47.074;15.404;2024-02-26T13:09:41;3.13;;;1.00;;
80536;SDS011;69867;47.074;15.404;2024-02-26T13:12:07;2.50;;;0.90;;
80536;SDS011;69867;47.074;15.404;2024-02-26T13:14:33;3.22;;;0.95;;
80536;SDS011;69867;47.074;15.404;2024-02-26T13:16:59;4.28;;;1.02;;
80536;SDS011;69867;47.074;15.404;2024-02-26T13:19:28;3.55;;;1.40;;
80536;SDS011;69867;47.074;15.404;2024-02-26T13:21:53;5.03;;;1.13;;
80536;SDS011;69867;47.074;15.404;2024-02-26T13:24:19;2.85;;;1.13;;
80536;SDS011;69867;47.074;15.404;2024-02-26T13:26:45;4.97;;;1.10;;
80536;SDS011;69867;47.074;15.404;2024-02-26T13:29:19;2.88;;;0.93;;
80536;SDS011;69867;47.074;15.404;2024-02-26T13:31:45;3.22;;;1.10;;
80536;SDS011;69867;47.074;15.404;2024-02-26T13:34:11;4.50;;;0.98;;
80536;SDS011;69867;47.074;15.404;2024-02-26T13:36:36;3.15;;;1.00;;
80536;SDS011;69867;47.074;15.404;2024-02-26T13:39:02;2.50;;;1.10;;
80536;SDS011;69867;47.074;15.404;2024-02-26T13:41:27;4.53;;;1.48;;
80536;SDS011;69867;47.074;15.404;2024-02-26T13:43:52;2.55;;;1.00;;
80536;SDS011;69867;47.074;15.404;2024-02-26T13:46:18;2.25;;;0.82;;
80536;SDS011;69867;47.074;15.404;2024-02-26T13:48:43;3.50;;;1.10;;
80536;SDS011;69867;47.074;15.404;2024-02-26T13:51:09;2.55;;;0.60;;
80536;SDS011;69867;47.074;15.404;2024-02-26T13:53:35;2.42;;;0.40;;
80536;SDS011;69867;47.074;15.404;2024-02-26T13:56:00;2.00;;;0.60;;
80536;SDS011;69867;47.074;15.404;2024-02-26T13:58:25;2.35;;;0.80;;
80536;SDS011;69867;47.074;15.404;2024-02-26T14:00:51;3.35;;;0.70;;
80536;SDS011;69867;47.074;15.404;2024-02-26T14:03:17;1.63;;;0.47;;
80536;SDS011;69867;47.074;15.404;2024-02-26T14:05:42;2.20;;;0.90;;
80536;SDS011;69867;47.074;15.404;2024-02-26T14:08:08;2.00;;;0.50;;
80536;SDS011;69867;47.074;15.404;2024-02-26T14:10:34;2.22;;;0.82;;
80536;SDS011;69867;47.074;15.404;2024-02-26T14:12:59;2.58;;;0.70;;
80536;SDS011;69867;47.074;15.404;2024-02-26T14:15:24;4.95;;;1.67;;
80536;SDS011;69867;47.074;15.404;2024-02-26T14:17:51;4.10;;;1.30;;
80536;SDS011;69867;47.074;15.404;2024-02-26T14:20:17;3.33;;;1.20;;
80536;SDS011;69867;47.074;15.404;2024-02-26T14:22:42;3.38;;;1.10;;
80536;SDS011;69867;47.074;15.404;2024-02-26T14:25:07;2.58;;;0.80;;
80536;SDS011;69867;47.074;15.404;2024-02-26T14:27:33;2.47;;;0.80;;
80536;SDS011;69867;47.074;15.404;2024-02-26T14:29:59;1.95;;;0.80;;
80536;SDS011;69867;47.074;15.404;2024-02-26T14:32:24;2.50;;;0.80;;
80536;SDS011;69867;47.074;15.404;2024-02-26T14:34:49;2.42;;;0.63;;